Time;durP1;ratioP1;P1;durP2;ratioP2;P2;SDS_P1;SDS_P2;PMS_P1;PMS_P2;Temp;Humidity;BMP_temperature;BMP_pressure;BME280_temperature;BME280_humidity;BME280_pressure;Samples;Min_cycle;Max_cycle;Signal;HPM_P1;HPM_P2
2022/10/27 00:00:07;;;;;;;29.60;24.43;;;;;;;10.37;83.87;101990.80;1762430;80;21013;-87
2022/10/27 00:02:35;;;;;;;31.80;23.85;;;;;;;10.40;83.85;101983.95;1762196;80;21113;-87
2022/10/27 00:05:03;;;;;;;30.90;23.83;;;;;;;10.44;83.86;101988.52;1775895;80;21884;-87
2022/10/27 00:07:29;;;;;;;28.57;22.85;;;;;;;10.48;83.87;101988.24;1777463;80;21041;-88
2022/10/27 00:09:56;;;;;;;30.97;24.75;;;;;;;10.50;83.73;101984.83;1775591;79;21079;-87
2022/10/27 00:12:23;;;;;;;31.90;24.35;;;;;;;10.51;83.68;101976.55;1775810;80;21993;-88
2022/10/27 00:14:50;;;;;;;28.57;22.93;;;;;;;10.52;83.64;101981.38;1732245;80;21079;-88
2022/10/27 00:17:17;;;;;;;31.07;24.55;;;;;;;10.52;83.58;101990.17;1754281;79;21789;-88
2022/10/27 00:19:44;;;;;;;35.05;24.92;;;;;;;10.54;83.61;101986.30;1793714;79;21068;-87
2022/10/27 00:22:10;;;;;;;30.82;24.23;;;;;;;10.56;83.75;101990.79;1764368;79;21025;-89
2022/10/27 00:24:37;;;;;;;33.53;26.42;;;;;;;10.58;83.67;101982.54;1714321;81;21114;-88
2022/10/27 00:27:04;;;;;;;36.68;28.23;;;;;;;10.60;83.69;101989.20;1745110;81;21148;-88
2022/10/27 00:29:31;;;;;;;35.80;27.20;;;;;;;10.61;83.76;101985.32;1744978;81;21744;-88
2022/10/27 00:31:58;;;;;;;39.08;28.92;;;;;;;10.64;83.77;101992.45;1744524;82;21591;-88
2022/10/27 00:34:25;;;;;;;37.20;29.63;;;;;;;10.67;83.88;101984.27;1745221;82;21093;-87
2022/10/27 00:36:51;;;;;;;42.55;30.12;;;;;;;10.72;83.89;101984.88;1744954;82;21125;-86
2022/10/27 00:39:19;;;;;;;37.75;29.98;;;;;;;10.76;83.93;101985.10;1744849;81;21050;-87
2022/10/27 00:41:46;;;;;;;39.42;28.70;;;;;;;10.79;83.88;101985.64;1758659;81;21841;-87
2022/10/27 00:44:41;;;;;;;41.75;31.33;;;;;;;10.81;83.93;101988.84;1768502;80;21111;-86
2022/10/27 00:47:24;;;;;;;40.75;30.52;;;;;;;10.83;83.95;101990.20;1775143;79;21067;-86
2022/10/27 00:50:01;;;;;;;40.95;31.02;;;;;;;10.86;84.08;101989.92;1775761;80;21891;-87
2022/10/27 00:52:42;;;;;;;36.20;29.02;;;;;;;10.87;84.00;101990.84;1775807;80;21126;-87
2022/10/27 00:55:26;;;;;;;40.08;30.35;;;;;;;10.88;84.03;101990.00;1775524;80;21771;-87
2022/10/27 00:57:55;;;;;;;38.02;30.35;;;;;;;10.88;83.99;101991.31;1768399;80;21041;-87
2022/10/27 01:00:22;;;;;;;38.30;29.32;;;;;;;10.89;84.02;101987.86;1775681;79;21051;-87
2022/10/27 01:02:49;;;;;;;36.05;28.47;;;;;;;10.87;83.90;101994.38;1757088;79;21065;-88
2022/10/27 01:05:22;;;;;;;34.92;28.30;;;;;;;10.87;83.83;101988.22;1742967;82;21063;-87
2022/10/27 01:07:50;;;;;;;32.17;27.17;;;;;;;10.80;83.76;101982.19;1747639;81;21875;-88
2022/10/27 01:10:17;;;;;;;36.28;28.50;;;;;;;10.80;83.74;101989.66;1750013;80;20979;-87
2022/10/27 01:12:44;;;;;;;32.40;27.20;;;;;;;10.78;83.77;101991.77;1777554;80;20994;-88
2022/10/27 01:15:11;;;;;;;34.10;27.87;;;;;;;10.77;83.83;101992.58;1777525;80;21462;-87
2022/10/27 01:18:01;;;;;;;35.58;28.60;;;;;;;10.77;83.87;101997.42;1773376;79;21012;-88
2022/10/27 01:20:45;;;;;;;32.65;27.77;;;;;;;10.78;83.89;101995.71;1777381;80;21678;-88
2022/10/27 01:23:32;;;;;;;38.13;28.55;;;;;;;10.76;83.83;101990.38;1742866;80;20880;-87
2022/10/27 01:26:31;;;;;;;38.78;29.15;;;;;;;10.75;83.85;101996.45;1747291;80;21393;-86
2022/10/27 01:29:41;;;;;;;34.18;26.95;;;;;;;10.74;83.87;101989.83;1746641;82;21941;-86
2022/10/27 01:32:31;;;;;;;33.73;27.20;;;;;;;10.73;83.84;101996.81;1759153;81;20996;-87
2022/10/27 01:35:23;;;;;;;36.45;28.10;;;;;;;10.70;83.75;101993.63;1767125;81;23028;-86
2022/10/27 01:37:54;;;;;;;34.40;27.85;;;;;;;10.67;83.76;102002.70;1767089;79;21463;-86
2022/10/27 01:40:29;;;;;;;34.90;28.35;;;;;;;10.63;83.69;101998.56;1762336;80;21025;-87
2022/10/27 01:43:12;;;;;;;37.93;28.38;;;;;;;10.57;83.66;101995.23;1758414;79;21001;-88
2022/10/27 01:45:39;;;;;;;38.85;29.42;;;;;;;10.50;83.52;101996.68;1772342;79;21596;-88
2022/10/27 01:48:06;;;;;;;36.50;28.52;;;;;;;10.45;83.51;101997.30;1749469;80;21728;-87
2022/10/27 01:50:38;;;;;;;34.67;28.02;;;;;;;10.38;83.57;101988.64;1777400;79;21867;-87
2022/10/27 01:53:07;;;;;;;35.52;28.02;;;;;;;10.30;83.47;101990.89;1777027;80;21470;-88
2022/10/27 01:55:46;;;;;;;36.25;28.83;;;;;;;10.22;83.50;101987.91;1777472;80;21011;-87
2022/10/27 01:58:48;;;;;;;35.55;28.55;;;;;;;10.15;83.52;101985.81;1777490;80;21450;-87
2022/10/27 02:01:43;;;;;;;34.23;27.32;;;;;;;10.07;83.48;101984.56;1769652;80;21678;-87
2022/10/27 02:04:40;;;;;;;37.05;28.87;;;;;;;9.98;83.48;101985.45;1746697;81;20992;-87
2022/10/27 02:07:12;;;;;;;35.00;27.80;;;;;;;9.89;83.61;101990.77;1734717;80;21025;-87
2022/10/27 02:10:03;;;;;;;35.75;28.07;;;;;;;9.84;83.67;101984.80;1733504;81;20997;-87
2022/10/27 02:12:33;;;;;;;35.25;27.87;;;;;;;9.78;83.72;101984.09;1733503;82;20973;-86
2022/10/27 02:15:03;;;;;;;38.08;27.58;;;;;;;9.71;83.75;101987.25;1732046;82;21805;-87
2022/10/27 02:17:36;;;;;;;37.33;28.38;;;;;;;9.67;83.76;101985.31;1759426;79;21131;-87
2022/10/27 02:20:04;;;;;;;;;;;;;;;9.62;83.78;101985.06;1783749;80;21068;-88
2022/10/27 02:22:31;;;;;;;38.50;28.40;;;;;;;9.58;83.85;101977.86;1752739;80;21398;-87
2022/10/27 02:24:58;;;;;;;36.33;28.10;;;;;;;9.52;83.80;101986.36;1718238;81;21033;-87
2022/10/27 02:27:39;;;;;;;34.00;27.62;;;;;;;9.46;83.85;101987.38;1744974;82;21756;-87
2022/10/27 02:30:06;;;;;;;35.98;28.10;;;;;;;9.43;83.87;101994.20;1744848;82;21074;-86
2022/10/27 02:32:33;;;;;;;35.83;28.50;;;;;;;9.37;83.82;101998.74;1767168;79;21057;-87
2022/10/27 02:35:00;;;;;;;38.40;28.90;;;;;;;9.33;83.89;101984.55;1775689;79;21071;-88
2022/10/27 02:37:37;;;;;;;36.42;28.75;;;;;;;9.30;83.82;101984.80;1762378;80;21044;-87
2022/10/27 02:40:04;;;;;;;35.78;28.30;;;;;;;9.24;83.88;101984.09;1758362;79;23105;-87
2022/10/27 02:42:31;;;;;;;42.43;30.43;;;;;;;9.20;83.92;101990.44;1759355;79;21089;-87
2022/10/27 02:44:58;;;;;;;38.78;29.27;;;;;;;9.17;84.05;101987.64;1767105;80;21143;-88
2022/10/27 02:47:25;;;;;;;38.63;29.12;;;;;;;9.15;84.13;101991.50;1764801;79;21119;-88
2022/10/27 02:49:52;;;;;;;38.78;29.65;;;;;;;9.13;84.11;101996.67;1763645;80;21078;-87
2022/10/27 02:52:18;;;;;;;38.88;30.45;;;;;;;9.10;84.06;101994.30;1768442;80;21734;-87
2022/10/27 02:54:47;;;;;;;38.70;29.18;;;;;;;9.07;84.17;101991.11;1773983;79;21081;-88
2022/10/27 02:57:16;;;;;;;36.90;29.65;;;;;;;9.04;84.19;101993.99;1768447;80;21075;-87
2022/10/27 02:59:43;;;;;;;38.35;30.50;;;;;;;9.02;84.15;101996.95;1782596;79;21095;-87
2022/10/27 03:02:10;;;;;;;39.90;30.40;;;;;;;9.00;84.26;101997.30;1752821;80;21051;-87
2022/10/27 03:04:37;;;;;;;37.30;30.15;;;;;;;8.98;84.26;102000.25;1771230;80;21781;-87
2022/10/27 03:07:04;;;;;;;39.78;30.27;;;;;;;8.95;84.25;101998.34;1766176;80;21063;-88
2022/10/27 03:09:32;;;;;;;38.20;31.02;;;;;;;8.89;84.24;101997.62;1724034;81;21322;-88
2022/10/27 03:12:00;;;;;;;37.48;30.23;;;;;;;8.86;84.27;101992.62;1775256;79;21115;-88
2022/10/27 03:14:26;;;;;;;39.27;29.85;;;;;;;8.84;84.37;101995.58;1747324;80;21554;-87
2022/10/27 03:16:57;;;;;;;40.55;30.35;;;;;;;8.81;84.44;101993.70;1772215;79;21842;-87
2022/10/27 03:19:23;;;;;;;42.65;31.02;;;;;;;8.81;84.57;101998.96;1765883;79;21092;-88
2022/10/27 03:21:49;;;;;;;44.93;32.80;;;;;;;8.82;84.73;101998.53;1757242;80;21020;-88
2022/10/27 03:24:16;;;;;;;49.27;34.70;;;;;;;8.83;84.91;102001.67;1754994;80;21536;-88
2022/10/27 03:26:46;;;;;;;46.13;33.35;;;;;;;8.84;85.00;101992.95;1765075;80;21081;-89
2022/10/27 03:29:13;;;;;;;62.38;34.03;;;;;;;8.84;85.14;101995.58;1770742;79;21764;-89
2022/10/27 03:31:40;;;;;;;49.70;35.03;;;;;;;8.87;85.28;102002.31;1768201;80;21081;-88
2022/10/27 03:34:08;;;;;;;51.95;36.63;;;;;;;8.93;85.55;102006.17;1752831;80;21067;-88
2022/10/27 03:36:43;;;;;;;49.75;36.63;;;;;;;9.01;85.74;102008.27;1754265;80;21096;-89
2022/10/27 03:39:10;;;;;;;53.87;38.13;;;;;;;8.98;85.81;101989.33;1770880;79;20961;-89
2022/10/27 03:41:37;;;;;;;53.90;36.25;;;;;;;9.12;85.89;101999.21;1777436;79;21741;-89
2022/10/27 03:44:04;;;;;;;49.95;37.00;;;;;;;9.16;85.90;101999.88;1757252;79;20973;-89
2022/10/27 03:46:31;;;;;;;46.45;36.20;;;;;;;9.23;86.00;102001.08;1778437;79;21022;-89
2022/10/27 03:48:58;;;;;;;45.23;36.60;;;;;;;9.27;86.01;102000.40;1769379;80;20992;-89
2022/10/27 03:51:24;;;;;;;51.00;35.58;;;;;;;9.33;86.09;102000.31;1771553;79;21034;-88
2022/10/27 03:53:51;;;;;;;50.08;36.55;;;;;;;9.40;86.22;101997.98;1771146;80;21793;-88
2022/10/27 03:56:18;;;;;;;46.33;34.67;;;;;;;9.45;86.16;101992.13;1778719;80;21440;-84
2022/10/27 03:58:45;;;;;;;49.35;35.43;;;;;;;9.49;86.29;101999.33;1768396;79;21810;-84
2022/10/27 04:01:12;;;;;;;45.85;36.75;;;;;;;9.54;86.25;102000.89;1757953;78;21102;-84
2022/10/27 04:03:38;;;;;;;45.98;35.30;;;;;;;9.57;86.28;102004.97;1752851;79;21042;-84
2022/10/27 04:06:07;;;;;;;42.48;33.02;;;;;;;9.58;86.27;102004.16;1691701;82;21013;-84
2022/10/27 04:08:34;;;;;;;40.78;32.88;;;;;;;9.61;86.29;102003.39;1758666;80;20976;-83
2022/10/27 04:11:02;;;;;;;38.28;32.70;;;;;;;9.63;86.27;102010.94;1738760;80;21930;-82
2022/10/27 04:13:29;;;;;;;43.38;32.88;;;;;;;9.62;86.15;102009.15;1749923;81;21002;-83
2022/10/27 04:16:04;;;;;;;37.85;31.65;;;;;;;9.63;86.12;102017.50;1761320;81;21015;-83
2022/10/27 04:18:34;;;;;;;37.53;32.55;;;;;;;9.61;86.08;102022.72;1753428;79;21698;-84
2022/10/27 04:21:01;;;;;;;41.68;31.35;;;;;;;9.60;86.00;102016.95;1754547;81;21000;-83
2022/10/27 04:23:28;;;;;;;36.98;32.30;;;;;;;9.57;85.87;102019.84;1756840;80;21515;-83
2022/10/27 04:25:55;;;;;;;54.08;31.20;;;;;;;9.54;85.86;102017.98;1740017;81;21456;-83
2022/10/27 04:28:22;;;;;;;44.30;30.68;;;;;;;9.51;85.83;102020.44;1744961;81;21045;-83
2022/10/27 04:30:49;;;;;;;39.90;31.77;;;;;;;9.47;85.71;102029.00;1746816;80;23080;-88
2022/10/27 04:33:16;;;;;;;40.45;31.60;;;;;;;9.42;85.69;102032.73;1691724;83;21100;-88
2022/10/27 04:35:43;;;;;;;42.30;32.05;;;;;;;9.37;85.59;102036.84;1688165;82;21063;-88
2022/10/27 04:38:09;;;;;;;36.55;30.92;;;;;;;9.32;85.52;102039.64;1705855;83;21102;-86
2022/10/27 04:40:36;;;;;;;36.25;30.40;;;;;;;9.25;85.47;102038.84;1703455;82;21108;-85
2022/10/27 04:43:06;;;;;;;36.55;30.08;;;;;;;9.22;85.50;102036.97;1691772;82;22814;-86
2022/10/27 04:45:33;;;;;;;36.05;30.72;;;;;;;9.17;85.41;102036.23;1751767;81;21075;-85
2022/10/27 04:48:00;;;;;;;37.83;30.92;;;;;;;9.10;85.33;102025.81;1753719;80;21072;-86
2022/10/27 04:50:27;;;;;;;39.50;32.35;;;;;;;9.03;85.27;102021.98;1747782;81;21064;-86
2022/10/27 04:53:07;;;;;;;38.35;29.85;;;;;;;8.97;85.22;102026.01;1763292;80;21053;-89
2022/10/27 04:55:32;;;;;;;37.60;31.10;;;;;;;8.91;85.28;102030.53;1739839;81;21010;-86
2022/10/27 04:58:05;;;;;;;32.28;28.73;;;;;;;8.87;85.45;102025.52;1755036;80;22089;-89
2022/10/27 05:00:30;;;;;;;37.10;29.42;;;;;;;8.84;85.43;102029.33;1754536;80;21126;-84
2022/10/27 05:03:02;;;;;;;38.17;30.72;;;;;;;8.83;85.49;102032.76;1751929;80;21206;-88
2022/10/27 05:05:29;;;;;;;34.73;27.80;;;;;;;8.81;85.49;102039.66;1758120;80;22006;-86
2022/10/27 05:08:02;;;;;;;34.45;28.32;;;;;;;8.77;85.41;102038.11;1750722;79;21048;-87
2022/10/27 05:10:30;;;;;;;35.40;28.62;;;;;;;8.72;85.25;102037.85;1772128;79;21094;-87
2022/10/27 05:12:58;;;;;;;38.23;28.57;;;;;;;8.67;85.35;102043.26;1728417;81;21083;-88
2022/10/27 05:15:25;;;;;;;34.53;28.07;;;;;;;8.65;85.33;102048.45;1763007;79;21470;-87
2022/10/27 05:17:52;;;;;;;36.98;29.82;;;;;;;8.63;85.38;102047.44;1771902;79;21063;-87
2022/10/27 05:20:19;;;;;;;35.92;29.70;;;;;;;8.67;85.54;102051.13;1773352;80;21728;-88
2022/10/27 05:22:48;;;;;;;36.13;30.40;;;;;;;8.69;85.60;102050.80;1764899;80;21509;-88
2022/10/27 05:25:15;;;;;;;41.98;29.67;;;;;;;8.74;85.75;102055.47;1770303;79;21053;-88
2022/10/27 05:27:42;;;;;;;35.92;29.98;;;;;;;8.79;85.63;102065.34;1767048;80;21179;-87
2022/10/27 05:30:11;;;;;;;45.98;30.90;;;;;;;8.81;85.64;102057.14;1768181;80;21518;-88
2022/10/27 05:32:39;;;;;;;39.90;30.82;;;;;;;8.82;85.55;102056.30;1777622;80;21676;-88
2022/10/27 05:35:06;;;;;;;43.13;31.90;;;;;;;8.84;85.62;102061.22;1775391;80;20964;-88
2022/10/27 05:37:33;;;;;;;45.38;30.97;;;;;;;8.88;85.65;102066.73;1776160;80;21629;-87
2022/10/27 05:40:00;;;;;;;44.53;30.57;;;;;;;8.90;85.58;102062.88;1765429;80;21032;-87
2022/10/27 05:42:27;;;;;;;40.38;30.37;;;;;;;8.88;85.41;102069.36;1766630;80;21065;-87
2022/10/27 05:44:56;;;;;;;35.33;30.52;;;;;;;8.86;85.41;102067.06;1762576;79;22613;-88
2022/10/27 05:47:26;;;;;;;38.50;30.60;;;;;;;8.85;85.33;102070.91;1763157;79;21111;-86
2022/10/27 05:49:51;;;;;;;37.73;29.35;;;;;;;8.84;85.40;102077.91;1727981;81;21097;-86
2022/10/27 05:52:18;;;;;;;36.98;27.90;;;;;;;8.83;85.34;102079.12;1690083;83;21136;-86
2022/10/27 05:54:44;;;;;;;38.15;28.35;;;;;;;8.81;85.29;102079.45;1770521;80;21023;-86
2022/10/27 05:57:11;;;;;;;36.35;27.58;;;;;;;8.79;85.30;102079.79;1767242;80;21711;-85
2022/10/27 05:59:38;;;;;;;37.00;27.67;;;;;;;8.82;85.32;102081.24;1766450;81;21039;-86
2022/10/27 06:02:05;;;;;;;33.42;27.50;;;;;;;8.83;85.33;102078.70;1774846;80;21082;-86
2022/10/27 06:04:34;;;;;;;31.45;26.17;;;;;;;8.85;85.39;102077.06;1773332;80;21040;-85
2022/10/27 06:07:02;;;;;;;30.52;25.88;;;;;;;8.88;85.38;102069.78;1764503;80;21136;-86
2022/10/27 06:09:29;;;;;;;30.90;26.10;;;;;;;8.90;85.37;102068.13;1757550;80;22927;-86
2022/10/27 06:11:56;;;;;;;29.92;25.25;;;;;;;8.94;85.57;102070.98;1756389;81;21076;-86
2022/10/27 06:14:23;;;;;;;30.00;25.95;;;;;;;9.04;85.61;102073.67;1750765;81;21055;-86
2022/10/27 06:16:50;;;;;;;30.27;24.87;;;;;;;9.09;85.59;102068.27;1749230;81;21247;-86
2022/10/27 06:19:17;;;;;;;29.48;24.75;;;;;;;9.17;85.63;102069.08;1749763;81;21063;-86
2022/10/27 06:21:44;;;;;;;29.82;24.82;;;;;;;9.27;85.72;102075.28;1749640;81;21761;-86
2022/10/27 06:24:11;;;;;;;31.02;25.23;;;;;;;9.34;85.70;102076.98;1740459;80;21118;-85
2022/10/27 06:26:38;;;;;;;30.88;25.97;;;;;;;9.44;85.66;102078.38;1723764;83;21592;-86
2022/10/27 06:29:05;;;;;;;31.15;25.43;;;;;;;9.50;85.68;102070.80;1723321;83;21122;-85
2022/10/27 06:31:32;;;;;;;28.62;25.27;;;;;;;9.58;85.65;102072.92;1723972;83;21168;-86
2022/10/27 06:34:06;;;;;;;30.80;24.35;;;;;;;9.63;85.59;102070.08;1722432;83;23078;-86
2022/10/27 06:36:33;;;;;;;30.20;25.05;;;;;;;9.70;85.62;102075.76;1722160;83;21146;-86
2022/10/27 06:39:00;;;;;;;31.02;26.35;;;;;;;9.82;85.69;102075.88;1701848;83;21117;-86
2022/10/27 06:41:27;;;;;;;34.38;26.15;;;;;;;9.91;85.77;102076.33;1722369;83;21599;-86
2022/10/27 06:43:54;;;;;;;32.15;25.37;;;;;;;9.94;85.95;102056.73;1723262;82;21102;-86
2022/10/27 06:46:22;;;;;;;28.30;22.58;;;;;;;10.18;85.83;102079.80;1722268;81;21811;-85
2022/10/27 06:48:49;;;;;;;25.92;21.27;;;;;;;10.23;85.64;102076.56;1683328;84;21134;-86
2022/10/27 06:51:18;;;;;;;26.10;20.75;;;;;;;10.29;85.50;102085.16;1705779;83;21395;-83
2022/10/27 06:53:46;;;;;;;24.80;19.92;;;;;;;10.29;85.19;102095.27;1724626;81;21074;-82
2022/10/27 06:56:17;;;;;;;22.93;20.08;;;;;;;10.26;85.05;102086.31;1732747;82;21085;-82
2022/10/27 06:58:47;;;;;;;22.00;19.62;;;;;;;10.28;85.08;102083.34;1732284;81;22575;-81
2022/10/27 07:01:36;;;;;;;;;;;;;;;;;;;;;
2022/10/27 07:03:58;;;;;;;22.13;19.73;;;;;;;10.29;84.97;102088.68;1732473;81;21078;-81
2022/10/27 07:06:25;;;;;;;22.55;20.15;;;;;;;10.31;84.95;102090.11;1755729;80;21022;-82
2022/10/27 07:08:52;;;;;;;23.10;20.57;;;;;;;10.35;85.08;102081.52;1776582;80;21321;-81
2022/10/27 07:11:19;;;;;;;22.87;20.15;;;;;;;10.41;85.06;102098.02;1772090;80;21818;-82
2022/10/27 07:13:47;;;;;;;21.93;19.50;;;;;;;10.45;85.01;102110.50;1772306;80;21058;-82
2022/10/27 07:16:15;;;;;;;23.77;20.25;;;;;;;10.50;85.13;102114.25;1772903;80;21110;-82
2022/10/27 07:18:43;;;;;;;22.32;18.95;;;;;;;10.55;85.14;102110.12;1743363;79;21511;-82
2022/10/27 07:21:10;;;;;;;21.65;19.10;;;;;;;10.62;85.11;102117.87;1725783;81;21061;-82
2022/10/27 07:23:37;;;;;;;21.65;19.35;;;;;;;10.68;85.22;102120.81;1725438;82;22579;-82
2022/10/27 07:26:04;;;;;;;22.90;20.20;;;;;;;10.75;85.16;102113.66;1708039;82;21115;-82
2022/10/27 07:28:31;;;;;;;24.98;19.40;;;;;;;10.82;85.25;102113.11;1701447;82;21061;-82
2022/10/27 07:30:58;;;;;;;22.55;19.73;;;;;;;10.89;85.16;102112.98;1724073;83;21066;-82
2022/10/27 07:33:25;;;;;;;24.92;20.02;;;;;;;10.96;85.15;102111.52;1724377;82;21109;-83
2022/10/27 07:35:53;;;;;;;21.75;19.52;;;;;;;11.04;85.17;102115.42;1723961;83;21570;-82
2022/10/27 07:38:20;;;;;;;20.80;18.60;;;;;;;11.11;85.15;102112.63;1723669;82;21085;-81
2022/10/27 07:40:46;;;;;;;23.67;19.15;;;;;;;11.19;85.25;102112.56;1721510;82;21559;-82
2022/10/27 07:43:15;;;;;;;21.70;19.40;;;;;;;11.28;85.21;102108.59;1711115;82;21093;-83
2022/10/27 07:45:42;;;;;;;20.15;18.07;;;;;;;11.38;85.22;102112.95;1661806;85;21109;-82
2022/10/27 07:48:13;;;;;;;19.73;17.73;;;;;;;11.50;85.23;102114.78;1722114;81;21747;-82
2022/10/27 07:50:40;;;;;;;18.70;16.80;;;;;;;11.63;85.18;102116.22;1719997;83;21523;-83
2022/10/27 07:53:07;;;;;;;20.82;16.40;;;;;;;11.75;85.08;102118.46;1738364;81;21069;-86
2022/10/27 07:55:35;;;;;;;18.30;16.27;;;;;;;11.89;85.08;102122.59;1719636;83;21012;-85
2022/10/27 07:58:08;;;;;;;17.15;15.20;;;;;;;11.99;84.97;102123.89;1719703;82;21133;-85
2022/10/27 08:00:38;;;;;;;16.93;15.20;;;;;;;12.07;84.71;102122.49;1737852;81;21711;-85
2022/10/27 08:03:06;;;;;;;18.48;16.52;;;;;;;12.13;84.47;102123.16;1697454;83;21082;-85
2022/10/27 08:05:34;;;;;;;18.73;16.60;;;;;;;12.16;84.38;102122.88;1708739;83;20994;-85
2022/10/27 08:08:02;;;;;;;23.38;16.65;;;;;;;12.24;84.30;102123.17;1706918;82;21511;-85
2022/10/27 08:10:30;;;;;;;18.70;16.70;;;;;;;12.29;84.21;102129.95;1698895;83;21097;-85
2022/10/27 08:12:57;;;;;;;19.55;17.48;;;;;;;12.35;84.15;102131.11;1695596;83;21759;-85
2022/10/27 08:15:24;;;;;;;19.27;17.23;;;;;;;12.38;83.97;102133.84;1695448;83;21104;-85
2022/10/27 08:17:58;;;;;;;17.17;15.38;;;;;;;12.42;83.95;102146.75;1695628;83;21096;-86
2022/10/27 08:20:25;;;;;;;16.67;14.98;;;;;;;12.45;83.82;102143.82;1695655;83;21141;-84
2022/10/27 08:22:55;;;;;;;16.80;15.10;;;;;;;12.49;83.68;102136.03;1695572;83;21135;-85
2022/10/27 08:25:22;;;;;;;15.50;13.90;;;;;;;12.52;83.70;102137.05;1689531;83;22586;-85
2022/10/27 08:27:49;;;;;;;15.45;13.53;;;;;;;12.59;83.65;102144.78;1686895;83;21117;-85
2022/10/27 08:30:16;;;;;;;20.55;17.20;;;;;;;12.67;83.76;102142.03;1723950;83;21074;-85
2022/10/27 08:32:43;;;;;;;18.10;14.43;;;;;;;12.80;83.89;102140.34;1723609;83;21194;-85
2022/10/27 08:35:10;;;;;;;15.20;13.65;;;;;;;12.98;83.94;102147.16;1724260;82;21139;-86
2022/10/27 08:37:39;;;;;;;15.38;13.78;;;;;;;13.16;84.08;102139.02;1724175;83;22542;-85
2022/10/27 08:40:07;;;;;;;17.42;13.80;;;;;;;13.35;83.88;102141.50;1713623;81;21050;-86
2022/10/27 08:42:46;;;;;;;14.70;13.20;;;;;;;13.53;83.80;102140.34;1706872;83;21105;-86
2022/10/27 08:45:20;;;;;;;14.85;12.45;;;;;;;13.74;83.83;102143.75;1705374;83;21511;-85
2022/10/27 08:47:46;;;;;;;14.98;13.40;;;;;;;14.00;83.80;102139.34;1706157;83;21078;-85
2022/10/27 08:50:20;;;;;;;15.40;13.80;;;;;;;14.20;83.47;102136.44;1706007;82;21751;-86
2022/10/27 08:52:59;;;;;;;19.00;13.65;;;;;;;14.42;83.33;102138.03;1660860;84;21062;-86
2022/10/27 08:55:35;;;;;;;14.63;12.65;;;;;;;14.53;82.75;102133.95;1705252;84;21066;-85
2022/10/27 08:58:41;;;;;;;14.40;12.90;;;;;;;14.69;82.74;102133.12;1719284;81;21318;-86
2022/10/27 09:01:28;;;;;;;14.33;12.25;;;;;;;14.91;82.78;102137.33;1763913;81;21105;-86
2022/10/27 09:04:12;;;;;;;18.85;12.55;;;;;;;15.18;82.79;102136.31;1764085;80;21804;-86
2022/10/27 09:07:13;;;;;;;14.35;11.40;;;;;;;15.43;82.55;102141.45;1763716;80;21116;-85
2022/10/27 09:09:55;;;;;;;15.18;11.18;;;;;;;15.58;81.92;102148.02;1758036;80;21075;-86
2022/10/27 09:12:58;;;;;;;12.63;11.12;;;;;;;15.68;81.50;102144.33;1753491;81;21083;-86
2022/10/27 09:15:45;;;;;;;12.85;10.40;;;;;;;15.74;81.17;102149.83;1753706;81;21129;-86
2022/10/27 09:18:37;;;;;;;14.73;11.00;;;;;;;15.85;80.95;102149.22;1753336;81;21794;-86
2022/10/27 09:21:08;;;;;;;12.25;10.20;;;;;;;15.91;80.76;102141.41;1753510;81;22171;-86
2022/10/27 09:23:40;;;;;;;12.18;9.43;;;;;;;15.96;80.60;102139.77;1753186;81;21130;-86
2022/10/27 09:26:07;;;;;;;12.47;9.73;;;;;;;16.00;80.59;102140.30;1723588;83;21063;-86
2022/10/27 09:28:41;;;;;;;12.50;9.13;;;;;;;16.06;80.55;102128.50;1723556;83;21126;-86
2022/10/27 09:31:18;;;;;;;10.98;9.33;;;;;;;16.12;80.59;102127.75;1723130;83;21801;-86
2022/10/27 09:33:56;;;;;;;13.15;8.95;;;;;;;16.10;80.56;102108.22;1723193;82;21091;-86
2022/10/27 09:36:23;;;;;;;9.55;8.18;;;;;;;16.36;80.55;102128.77;1689732;81;21094;-86
2022/10/27 09:38:50;;;;;;;10.13;6.92;;;;;;;16.50;80.38;102129.10;1705226;84;21089;-86
2022/10/27 09:41:16;;;;;;;9.55;7.40;;;;;;;16.62;79.98;102132.02;1705314;83;21081;-86
2022/10/27 09:43:44;;;;;;;13.10;8.23;;;;;;;16.75;79.75;102122.99;1704957;83;21733;-85
2022/10/27 09:46:23;;;;;;;8.78;7.15;;;;;;;16.83;79.21;102130.72;1705432;84;20927;-86
2022/10/27 09:49:06;;;;;;;9.10;7.72;;;;;;;16.90;78.95;102131.32;1705428;84;21616;-86
2022/10/27 09:51:49;;;;;;;10.23;7.30;;;;;;;16.93;78.61;102133.14;1705416;83;21534;-86
2022/10/27 09:54:32;;;;;;;10.88;8.00;;;;;;;16.99;78.52;102131.52;1718885;80;21627;-86
2022/10/27 09:57:10;;;;;;;7.65;6.85;;;;;;;17.07;78.20;102125.91;1763987;81;21725;-86
2022/10/27 09:59:37;;;;;;;11.83;8.35;;;;;;;17.11;77.86;102125.53;1764002;80;21244;-86
2022/10/27 10:02:08;;;;;;;9.10;7.65;;;;;;;17.05;77.16;102130.75;1764332;81;21063;-85
2022/10/27 10:04:38;;;;;;;9.95;7.53;;;;;;;16.97;77.13;102131.92;1762949;79;21053;-86
2022/10/27 10:07:05;;;;;;;14.55;9.48;;;;;;;16.99;77.35;102135.95;1763745;79;21069;-86
2022/10/27 10:09:38;;;;;;;10.60;9.38;;;;;;;17.01;77.00;102136.44;1763977;81;22437;-86
2022/10/27 10:12:23;;;;;;;11.12;9.70;;;;;;;16.98;76.96;102130.15;1764156;81;21607;-85
2022/10/27 10:15:14;;;;;;;14.53;9.25;;;;;;;16.95;76.72;102129.66;1763886;79;21104;-86
2022/10/27 10:17:53;;;;;;;13.38;8.88;;;;;;;16.93;76.32;102135.80;1753354;81;21077;-86
2022/10/27 10:20:41;;;;;;;11.88;10.68;;;;;;;16.88;76.05;102139.27;1763017;79;21571;-85
2022/10/27 10:23:23;;;;;;;12.07;10.18;;;;;;;16.75;75.71;102141.60;1743092;81;21832;-85
2022/10/27 10:25:50;;;;;;;12.18;9.55;;;;;;;16.65;75.84;102143.17;1728418;81;21003;-86
2022/10/27 10:28:32;;;;;;;11.83;9.55;;;;;;;16.56;76.02;102116.38;1723904;82;21504;-86
2022/10/27 10:31:00;;;;;;;10.58;9.38;;;;;;;16.80;76.29;102142.17;1724158;82;21940;-85
2022/10/27 10:33:31;;;;;;;13.98;10.80;;;;;;;16.90;76.04;102139.30;1707406;81;21527;-86
2022/10/27 10:35:57;;;;;;;14.65;11.12;;;;;;;16.95;75.90;102140.71;1705848;84;21717;-85
2022/10/27 10:38:31;;;;;;;11.80;10.00;;;;;;;17.03;75.76;102148.44;1705315;83;21047;-86
2022/10/27 10:41:19;;;;;;;13.43;10.85;;;;;;;17.02;75.61;102145.30;1707585;83;21034;-85
2022/10/27 10:43:46;;;;;;;12.85;11.20;;;;;;;17.04;75.43;102142.23;1706912;82;22177;-86
2022/10/27 10:46:21;;;;;;;12.85;11.43;;;;;;;16.97;75.14;102135.91;1706054;83;21511;-86
2022/10/27 10:48:53;;;;;;;12.20;10.90;;;;;;;16.89;75.05;102142.81;1705980;83;22541;-85
2022/10/27 10:51:30;;;;;;;13.55;12.15;;;;;;;16.79;74.80;102136.81;1738966;81;21801;-86
2022/10/27 10:54:07;;;;;;;15.18;12.37;;;;;;;16.66;74.81;102140.95;1764411;81;21058;-86
2022/10/27 10:56:35;;;;;;;14.45;11.43;;;;;;;16.50;74.83;102152.58;1727544;83;21033;-86
2022/10/27 10:59:12;;;;;;;13.65;12.25;;;;;;;16.38;74.94;102156.27;1727530;83;21647;-86
2022/10/27 11:02:00;;;;;;;15.05;12.73;;;;;;;16.31;75.16;102151.66;1707543;81;21773;-86
2022/10/27 11:04:31;;;;;;;16.07;13.18;;;;;;;16.24;75.24;102155.06;1727502;83;21086;-86
2022/10/27 11:07:06;;;;;;;18.15;12.18;;;;;;;16.20;75.41;102151.43;1729480;83;21344;-86
2022/10/27 11:09:39;;;;;;;14.68;12.53;;;;;;;16.18;75.56;102148.25;1720154;81;21078;-86
2022/10/27 11:12:17;;;;;;;16.82;12.53;;;;;;;16.17;75.67;102141.16;1700154;83;21090;-86
2022/10/27 11:14:44;;;;;;;17.07;11.85;;;;;;;16.15;75.69;102143.77;1692373;84;21816;-85
2022/10/27 11:17:11;;;;;;;13.68;11.40;;;;;;;16.17;75.76;102145.14;1699613;83;21646;-86
2022/10/27 11:19:39;;;;;;;16.80;13.45;;;;;;;16.16;75.80;102144.66;1699961;83;21122;-86
2022/10/27 11:22:13;;;;;;;14.00;12.55;;;;;;;16.18;76.01;102143.86;1700034;83;21079;-86
2022/10/27 11:24:55;;;;;;;16.20;12.82;;;;;;;16.24;76.04;102144.00;1690015;83;21142;-86
2022/10/27 11:27:26;;;;;;;16.12;12.60;;;;;;;16.26;76.05;102144.93;1671325;85;21899;-85
2022/10/27 11:30:22;;;;;;;14.53;13.03;;;;;;;16.25;76.06;102142.23;1671651;85;21062;-86
2022/10/27 11:33:06;;;;;;;17.50;13.53;;;;;;;16.24;76.02;102142.67;1671539;85;21588;-86